sensor_id;sensor_type;location;lat;lon;timestamp;P1;durP1;ratioP1;P2;durP2;ratioP2
32445;SDS011;18899;50.748;7.102;2023-05-10T00:01:21;2.05;;;1.30;;
32445;SDS011;18899;50.748;7.102;2023-05-10T00:03:46;1.92;;;1.10;;
32445;SDS011;18899;50.748;7.102;2023-05-10T00:06:12;2.33;;;1.23;;
32445;SDS011;18899;50.748;7.102;2023-05-10T00:08:38;5.63;;;1.40;;
32445;SDS011;18899;50.748;7.102;2023-05-10T00:11:03;4.75;;;1.45;;
32445;SDS011;18899;50.748;7.102;2023-05-10T00:13:29;2.08;;;1.33;;
32445;SDS011;18899;50.748;7.102;2023-05-10T00:15:54;2.17;;;1.30;;
32445;SDS011;18899;50.748;7.102;2023-05-10T00:18:20;1.48;;;1.20;;
32445;SDS011;18899;50.748;7.102;2023-05-10T00:20:45;2.10;;;1.23;;
32445;SDS011;18899;50.748;7.102;2023-05-10T00:23:11;2.40;;;0.98;;
32445;SDS011;18899;50.748;7.102;2023-05-10T00:25:37;3.58;;;1.20;;
32445;SDS011;18899;50.748;7.102;2023-05-10T00:28:02;1.83;;;1.20;;
32445;SDS011;18899;50.748;7.102;2023-05-10T00:30:28;3.17;;;1.13;;
32445;SDS011;18899;50.748;7.102;2023-05-10T00:32:54;2.15;;;1.45;;
32445;SDS011;18899;50.748;7.102;2023-05-10T00:35:19;1.60;;;1.20;;
32445;SDS011;18899;50.748;7.102;2023-05-10T00:37:46;1.90;;;1.40;;
32445;SDS011;18899;50.748;7.102;2023-05-10T00:40:12;2.10;;;1.30;;
32445;SDS011;18899;50.748;7.102;2023-05-10T00:42:37;5.03;;;1.20;;
32445;SDS011;18899;50.748;7.102;2023-05-10T00:45:03;2.15;;;1.27;;
32445;SDS011;18899;50.748;7.102;2023-05-10T00:47:29;2.00;;;1.50;;
32445;SDS011;18899;50.748;7.102;2023-05-10T00:49:54;2.92;;;1.40;;
32445;SDS011;18899;50.748;7.102;2023-05-10T00:52:20;2.63;;;1.45;;
32445;SDS011;18899;50.748;7.102;2023-05-10T00:54:48;3.10;;;1.55;;
32445;SDS011;18899;50.748;7.102;2023-05-10T00:57:16;1.85;;;1.05;;
32445;SDS011;18899;50.748;7.102;2023-05-10T00:59:42;3.78;;;1.52;;
32445;SDS011;18899;50.748;7.102;2023-05-10T01:02:08;5.35;;;1.27;;
32445;SDS011;18899;50.748;7.102;2023-05-10T01:04:34;2.22;;;1.33;;
32445;SDS011;18899;50.748;7.102;2023-05-10T01:07:00;1.65;;;1.23;;
32445;SDS011;18899;50.748;7.102;2023-05-10T01:09:26;3.83;;;1.25;;
32445;SDS011;18899;50.748;7.102;2023-05-10T01:11:52;2.53;;;1.38;;
32445;SDS011;18899;50.748;7.102;2023-05-10T01:14:19;4.45;;;1.20;;
32445;SDS011;18899;50.748;7.102;2023-05-10T01:16:45;1.45;;;1.05;;
32445;SDS011;18899;50.748;7.102;2023-05-10T01:21:53;2.60;;;1.30;;
32445;SDS011;18899;50.748;7.102;2023-05-10T01:33:07;1.15;;;1.00;;
32445;SDS011;18899;50.748;7.102;2023-05-10T01:36:02;1.63;;;1.00;;
32445;SDS011;18899;50.748;7.102;2023-05-10T01:38:48;3.13;;;1.02;;
32445;SDS011;18899;50.748;7.102;2023-05-10T01:46:57;1.33;;;1.15;;
32445;SDS011;18899;50.748;7.102;2023-05-10T01:49:32;4.22;;;1.42;;
32445;SDS011;18899;50.748;7.102;2023-05-10T01:52:06;2.90;;;1.50;;
32445;SDS011;18899;50.748;7.102;2023-05-10T01:54:39;2.30;;;1.38;;
32445;SDS011;18899;50.748;7.102;2023-05-10T01:57:09;2.33;;;1.50;;
32445;SDS011;18899;50.748;7.102;2023-05-10T01:59:38;3.95;;;1.50;;
32445;SDS011;18899;50.748;7.102;2023-05-10T02:02:07;5.57;;;1.50;;
32445;SDS011;18899;50.748;7.102;2023-05-10T02:04:36;2.83;;;1.50;;
32445;SDS011;18899;50.748;7.102;2023-05-10T02:07:04;2.47;;;1.50;;
32445;SDS011;18899;50.748;7.102;2023-05-10T02:09:32;2.22;;;1.42;;
32445;SDS011;18899;50.748;7.102;2023-05-10T02:11:59;3.53;;;1.35;;
32445;SDS011;18899;50.748;7.102;2023-05-10T02:14:27;3.63;;;1.50;;
32445;SDS011;18899;50.748;7.102;2023-05-10T02:16:57;3.88;;;1.67;;
32445;SDS011;18899;50.748;7.102;2023-05-10T02:19:24;3.50;;;1.50;;
32445;SDS011;18899;50.748;7.102;2023-05-10T02:21:50;5.70;;;1.52;;
32445;SDS011;18899;50.748;7.102;2023-05-10T02:24:17;2.55;;;1.55;;
32445;SDS011;18899;50.748;7.102;2023-05-10T02:26:44;2.85;;;1.50;;
32445;SDS011;18899;50.748;7.102;2023-05-10T02:29:11;2.20;;;1.30;;
32445;SDS011;18899;50.748;7.102;2023-05-10T02:31:38;1.95;;;1.38;;
32445;SDS011;18899;50.748;7.102;2023-05-10T02:34:08;3.50;;;1.63;;
32445;SDS011;18899;50.748;7.102;2023-05-10T02:36:35;2.15;;;1.40;;
32445;SDS011;18899;50.748;7.102;2023-05-10T02:39:02;2.40;;;1.40;;
32445;SDS011;18899;50.748;7.102;2023-05-10T02:41:30;2.50;;;1.60;;
32445;SDS011;18899;50.748;7.102;2023-05-10T02:43:57;2.35;;;1.48;;
32445;SDS011;18899;50.748;7.102;2023-05-10T02:46:26;3.30;;;1.70;;
32445;SDS011;18899;50.748;7.102;2023-05-10T02:48:51;3.55;;;1.65;;
32445;SDS011;18899;50.748;7.102;2023-05-10T02:51:17;2.75;;;1.90;;
32445;SDS011;18899;50.748;7.102;2023-05-10T02:53:44;3.65;;;2.00;;
32445;SDS011;18899;50.748;7.102;2023-05-10T02:56:13;4.00;;;2.22;;
32445;SDS011;18899;50.748;7.102;2023-05-10T02:58:44;3.40;;;2.20;;
32445;SDS011;18899;50.748;7.102;2023-05-10T03:01:09;4.82;;;1.83;;
32445;SDS011;18899;50.748;7.102;2023-05-10T03:03:35;2.55;;;1.60;;
32445;SDS011;18899;50.748;7.102;2023-05-10T03:06:00;2.33;;;1.70;;
32445;SDS011;18899;50.748;7.102;2023-05-10T03:08:26;2.42;;;1.75;;
32445;SDS011;18899;50.748;7.102;2023-05-10T03:11:05;2.42;;;1.27;;
32445;SDS011;18899;50.748;7.102;2023-05-10T03:16:41;3.65;;;1.80;;
32445;SDS011;18899;50.748;7.102;2023-05-10T03:19:13;5.55;;;1.80;;
32445;SDS011;18899;50.748;7.102;2023-05-10T03:21:55;6.38;;;2.83;;
32445;SDS011;18899;50.748;7.102;2023-05-10T03:24:25;3.72;;;1.90;;
32445;SDS011;18899;50.748;7.102;2023-05-10T03:26:53;3.38;;;1.80;;
32445;SDS011;18899;50.748;7.102;2023-05-10T03:29:21;6.93;;;2.42;;
32445;SDS011;18899;50.748;7.102;2023-05-10T03:31:50;6.18;;;2.63;;
32445;SDS011;18899;50.748;7.102;2023-05-10T03:34:15;6.63;;;2.97;;
32445;SDS011;18899;50.748;7.102;2023-05-10T03:36:42;8.50;;;3.65;;
32445;SDS011;18899;50.748;7.102;2023-05-10T03:39:07;6.78;;;3.80;;
32445;SDS011;18899;50.748;7.102;2023-05-10T03:41:33;7.72;;;4.00;;
32445;SDS011;18899;50.748;7.102;2023-05-10T03:43:59;5.47;;;3.58;;
32445;SDS011;18899;50.748;7.102;2023-05-10T03:46:25;6.90;;;3.45;;
32445;SDS011;18899;50.748;7.102;2023-05-10T03:48:50;8.07;;;3.58;;
32445;SDS011;18899;50.748;7.102;2023-05-10T03:51:16;8.85;;;4.18;;
32445;SDS011;18899;50.748;7.102;2023-05-10T03:53:41;7.85;;;4.00;;
32445;SDS011;18899;50.748;7.102;2023-05-10T03:56:07;9.10;;;4.40;;
32445;SDS011;18899;50.748;7.102;2023-05-10T03:58:32;11.05;;;3.75;;
32445;SDS011;18899;50.748;7.102;2023-05-10T04:00:58;9.50;;;5.45;;
32445;SDS011;18899;50.748;7.102;2023-05-10T04:03:23;7.90;;;4.10;;
32445;SDS011;18899;50.748;7.102;2023-05-10T04:05:58;10.32;;;4.50;;
32445;SDS011;18899;50.748;7.102;2023-05-10T04:08:24;7.25;;;4.55;;
32445;SDS011;18899;50.748;7.102;2023-05-10T04:10:50;12.43;;;4.90;;
32445;SDS011;18899;50.748;7.102;2023-05-10T04:13:16;8.65;;;4.95;;
32445;SDS011;18899;50.748;7.102;2023-05-10T04:15:42;9.15;;;5.07;;
32445;SDS011;18899;50.748;7.102;2023-05-10T04:18:08;10.85;;;5.55;;
32445;SDS011;18899;50.748;7.102;2023-05-10T04:20:33;10.93;;;5.93;;
32445;SDS011;18899;50.748;7.102;2023-05-10T04:22:59;9.77;;;5.68;;
32445;SDS011;18899;50.748;7.102;2023-05-10T04:25:24;12.55;;;7.00;;
32445;SDS011;18899;50.748;7.102;2023-05-10T04:27:50;13.40;;;7.25;;
32445;SDS011;18899;50.748;7.102;2023-05-10T04:30:16;14.05;;;7.68;;
32445;SDS011;18899;50.748;7.102;2023-05-10T04:32:42;18.08;;;7.90;;
32445;SDS011;18899;50.748;7.102;2023-05-10T04:35:07;18.23;;;8.15;;
32445;SDS011;18899;50.748;7.102;2023-05-10T04:37:35;14.75;;;8.38;;
32445;SDS011;18899;50.748;7.102;2023-05-10T04:40:01;14.15;;;7.97;;
32445;SDS011;18899;50.748;7.102;2023-05-10T04:42:28;17.42;;;8.90;;
32445;SDS011;18899;50.748;7.102;2023-05-10T04:44:54;15.20;;;8.75;;
32445;SDS011;18899;50.748;7.102;2023-05-10T04:47:19;18.13;;;9.23;;
32445;SDS011;18899;50.748;7.102;2023-05-10T04:49:45;20.42;;;9.50;;
32445;SDS011;18899;50.748;7.102;2023-05-10T04:52:10;23.88;;;10.93;;
32445;SDS011;18899;50.748;7.102;2023-05-10T04:54:36;20.05;;;10.40;;
32445;SDS011;18899;50.748;7.102;2023-05-10T04:57:02;21.98;;;11.63;;
32445;SDS011;18899;50.748;7.102;2023-05-10T04:59:27;19.27;;;10.57;;
32445;SDS011;18899;50.748;7.102;2023-05-10T05:01:53;19.90;;;10.75;;
32445;SDS011;18899;50.748;7.102;2023-05-10T05:04:18;20.17;;;11.10;;
32445;SDS011;18899;50.748;7.102;2023-05-10T05:06:44;19.48;;;10.38;;
32445;SDS011;18899;50.748;7.102;2023-05-10T05:09:09;21.48;;;12.02;;
32445;SDS011;18899;50.748;7.102;2023-05-10T05:11:35;25.15;;;13.00;;
32445;SDS011;18899;50.748;7.102;2023-05-10T05:14:01;23.88;;;12.38;;
32445;SDS011;18899;50.748;7.102;2023-05-10T05:16:26;19.80;;;11.45;;
32445;SDS011;18899;50.748;7.102;2023-05-10T05:18:52;23.95;;;12.82;;
32445;SDS011;18899;50.748;7.102;2023-05-10T05:21:18;22.02;;;11.52;;
32445;SDS011;18899;50.748;7.102;2023-05-10T05:23:44;23.73;;;12.25;;
32445;SDS011;18899;50.748;7.102;2023-05-10T05:26:10;20.70;;;12.00;;
32445;SDS011;18899;50.748;7.102;2023-05-10T05:28:36;25.38;;;12.05;;
32445;SDS011;18899;50.748;7.102;2023-05-10T05:31:03;23.02;;;12.23;;
32445;SDS011;18899;50.748;7.102;2023-05-10T05:33:30;26.13;;;12.43;;
32445;SDS011;18899;50.748;7.102;2023-05-10T05:35:56;23.83;;;12.32;;
32445;SDS011;18899;50.748;7.102;2023-05-10T05:38:21;27.67;;;13.18;;
32445;SDS011;18899;50.748;7.102;2023-05-10T05:40:47;24.38;;;12.93;;
32445;SDS011;18899;50.748;7.102;2023-05-10T05:43:12;21.45;;;12.90;;
32445;SDS011;18899;50.748;7.102;2023-05-10T05:45:38;22.90;;;12.77;;
32445;SDS011;18899;50.748;7.102;2023-05-10T05:48:04;19.67;;;12.38;;
32445;SDS011;18899;50.748;7.102;2023-05-10T05:50:29;24.85;;;12.95;;
32445;SDS011;18899;50.748;7.102;2023-05-10T05:52:55;23.85;;;12.50;;
32445;SDS011;18899;50.748;7.102;2023-05-10T05:55:21;19.55;;;11.75;;
32445;SDS011;18899;50.748;7.102;2023-05-10T05:57:47;20.15;;;11.60;;
32445;SDS011;18899;50.748;7.102;2023-05-10T06:00:13;19.40;;;11.27;;
32445;SDS011;18899;50.748;7.102;2023-05-10T06:02:38;20.60;;;10.73;;
32445;SDS011;18899;50.748;7.102;2023-05-10T06:05:04;16.55;;;9.73;;
32445;SDS011;18899;50.748;7.102;2023-05-10T06:07:30;19.15;;;9.70;;
32445;SDS011;18899;50.748;7.102;2023-05-10T06:09:56;16.80;;;9.65;;
32445;SDS011;18899;50.748;7.102;2023-05-10T06:12:21;17.60;;;8.43;;
32445;SDS011;18899;50.748;7.102;2023-05-10T06:14:47;17.02;;;9.02;;
32445;SDS011;18899;50.748;7.102;2023-05-10T06:17:12;13.18;;;8.43;;
32445;SDS011;18899;50.748;7.102;2023-05-10T06:19:38;13.45;;;8.13;;
32445;SDS011;18899;50.748;7.102;2023-05-10T06:22:03;13.88;;;7.78;;
32445;SDS011;18899;50.748;7.102;2023-05-10T06:24:29;14.63;;;8.13;;
32445;SDS011;18899;50.748;7.102;2023-05-10T06:26:54;12.23;;;7.60;;
32445;SDS011;18899;50.748;7.102;2023-05-10T06:29:20;11.95;;;7.70;;
32445;SDS011;18899;50.748;7.102;2023-05-10T06:31:45;14.45;;;7.88;;
32445;SDS011;18899;50.748;7.102;2023-05-10T06:34:11;12.32;;;7.82;;
32445;SDS011;18899;50.748;7.102;2023-05-10T06:36:37;12.38;;;6.90;;
32445;SDS011;18899;50.748;7.102;2023-05-10T06:39:02;12.57;;;5.97;;
32445;SDS011;18899;50.748;7.102;2023-05-10T06:41:28;10.00;;;6.28;;
32445;SDS011;18899;50.748;7.102;2023-05-10T06:43:53;12.75;;;5.57;;
32445;SDS011;18899;50.748;7.102;2023-05-10T06:46:19;8.20;;;4.63;;
32445;SDS011;18899;50.748;7.102;2023-05-10T06:48:45;8.75;;;4.43;;
32445;SDS011;18899;50.748;7.102;2023-05-10T06:51:10;9.23;;;3.95;;
32445;SDS011;18899;50.748;7.102;2023-05-10T06:53:36;9.35;;;4.45;;
32445;SDS011;18899;50.748;7.102;2023-05-10T06:56:02;8.02;;;4.45;;
32445;SDS011;18899;50.748;7.102;2023-05-10T06:58:28;10.55;;;4.20;;
32445;SDS011;18899;50.748;7.102;2023-05-10T07:00:53;7.65;;;3.90;;
32445;SDS011;18899;50.748;7.102;2023-05-10T07:03:19;8.65;;;4.03;;
32445;SDS011;18899;50.748;7.102;2023-05-10T07:05:44;11.13;;;3.85;;
32445;SDS011;18899;50.748;7.102;2023-05-10T07:08:10;7.60;;;3.83;;
32445;SDS011;18899;50.748;7.102;2023-05-10T07:10:35;8.38;;;3.63;;
32445;SDS011;18899;50.748;7.102;2023-05-10T07:13:01;6.10;;;3.35;;
32445;SDS011;18899;50.748;7.102;2023-05-10T07:15:26;9.35;;;3.70;;
32445;SDS011;18899;50.748;7.102;2023-05-10T07:17:53;6.82;;;3.55;;
32445;SDS011;18899;50.748;7.102;2023-05-10T07:20:18;10.30;;;3.65;;
32445;SDS011;18899;50.748;7.102;2023-05-10T07:22:44;5.82;;;3.50;;
32445;SDS011;18899;50.748;7.102;2023-05-10T07:25:09;6.55;;;3.30;;
32445;SDS011;18899;50.748;7.102;2023-05-10T07:27:35;6.10;;;3.88;;
32445;SDS011;18899;50.748;7.102;2023-05-10T07:30:01;5.75;;;3.45;;
32445;SDS011;18899;50.748;7.102;2023-05-10T07:32:27;6.13;;;3.72;;
32445;SDS011;18899;50.748;7.102;2023-05-10T07:34:52;6.35;;;2.90;;
32445;SDS011;18899;50.748;7.102;2023-05-10T07:37:18;9.48;;;3.30;;
32445;SDS011;18899;50.748;7.102;2023-05-10T07:39:43;6.63;;;3.50;;
32445;SDS011;18899;50.748;7.102;2023-05-10T07:42:09;5.30;;;2.92;;
32445;SDS011;18899;50.748;7.102;2023-05-10T07:44:35;5.47;;;3.10;;
32445;SDS011;18899;50.748;7.102;2023-05-10T07:47:00;4.50;;;2.85;;
32445;SDS011;18899;50.748;7.102;2023-05-10T07:49:26;7.20;;;3.60;;
32445;SDS011;18899;50.748;7.102;2023-05-10T07:51:51;10.48;;;3.05;;
32445;SDS011;18899;50.748;7.102;2023-05-10T07:54:17;4.65;;;2.92;;
32445;SDS011;18899;50.748;7.102;2023-05-10T07:56:42;5.60;;;2.97;;
32445;SDS011;18899;50.748;7.102;2023-05-10T07:59:15;10.00;;;3.25;;
32445;SDS011;18899;50.748;7.102;2023-05-10T08:01:42;14.52;;;3.92;;
32445;SDS011;18899;50.748;7.102;2023-05-10T08:04:08;15.80;;;3.80;;
32445;SDS011;18899;50.748;7.102;2023-05-10T08:06:34;122.18;;;14.25;;
32445;SDS011;18899;50.748;7.102;2023-05-10T08:09:00;35.35;;;7.47;;
32445;SDS011;18899;50.748;7.102;2023-05-10T08:11:25;9.85;;;3.53;;
32445;SDS011;18899;50.748;7.102;2023-05-10T08:13:52;10.93;;;3.50;;
32445;SDS011;18899;50.748;7.102;2023-05-10T08:16:19;7.57;;;3.17;;
32445;SDS011;18899;50.748;7.102;2023-05-10T08:18:45;5.20;;;3.28;;
32445;SDS011;18899;50.748;7.102;2023-05-10T08:21:11;10.02;;;3.15;;
32445;SDS011;18899;50.748;7.102;2023-05-10T08:23:38;9.38;;;3.35;;
32445;SDS011;18899;50.748;7.102;2023-05-10T08:26:04;9.00;;;3.50;;
32445;SDS011;18899;50.748;7.102;2023-05-10T08:28:29;6.07;;;3.28;;
32445;SDS011;18899;50.748;7.102;2023-05-10T08:30:55;5.30;;;3.17;;
32445;SDS011;18899;50.748;7.102;2023-05-10T08:33:20;9.82;;;3.33;;
32445;SDS011;18899;50.748;7.102;2023-05-10T08:35:46;5.38;;;3.13;;
32445;SDS011;18899;50.748;7.102;2023-05-10T08:38:12;5.25;;;3.00;;
32445;SDS011;18899;50.748;7.102;2023-05-10T08:40:37;4.82;;;2.58;;
32445;SDS011;18899;50.748;7.102;2023-05-10T08:43:08;5.55;;;2.67;;
32445;SDS011;18899;50.748;7.102;2023-05-10T08:45:36;5.07;;;2.58;;
32445;SDS011;18899;50.748;7.102;2023-05-10T08:48:12;10.93;;;2.75;;
32445;SDS011;18899;50.748;7.102;2023-05-10T08:50:39;7.45;;;2.72;;
32445;SDS011;18899;50.748;7.102;2023-05-10T08:53:09;5.43;;;2.70;;
32445;SDS011;18899;50.748;7.102;2023-05-10T08:55:36;4.07;;;2.25;;
32445;SDS011;18899;50.748;7.102;2023-05-10T08:58:03;4.20;;;2.10;;
32445;SDS011;18899;50.748;7.102;2023-05-10T09:00:29;4.53;;;2.45;;
32445;SDS011;18899;50.748;7.102;2023-05-10T09:02:55;4.13;;;2.53;;
32445;SDS011;18899;50.748;7.102;2023-05-10T09:05:25;7.82;;;2.70;;
32445;SDS011;18899;50.748;7.102;2023-05-10T09:07:51;2.90;;;1.73;;
32445;SDS011;18899;50.748;7.102;2023-05-10T09:10:17;1.98;;;1.50;;
32445;SDS011;18899;50.748;7.102;2023-05-10T09:12:44;3.05;;;1.63;;
32445;SDS011;18899;50.748;7.102;2023-05-10T09:15:10;4.05;;;1.50;;
32445;SDS011;18899;50.748;7.102;2023-05-10T09:17:37;4.80;;;1.77;;
32445;SDS011;18899;50.748;7.102;2023-05-10T09:20:04;3.22;;;1.25;;
32445;SDS011;18899;50.748;7.102;2023-05-10T09:22:30;3.28;;;1.33;;
32445;SDS011;18899;50.748;7.102;2023-05-10T09:27:36;1.50;;;0.98;;
32445;SDS011;18899;50.748;7.102;2023-05-10T09:30:03;3.38;;;1.20;;
32445;SDS011;18899;50.748;7.102;2023-05-10T09:33:03;5.43;;;1.15;;
32445;SDS011;18899;50.748;7.102;2023-05-10T09:35:23;3.22;;;1.35;;
32445;SDS011;18899;50.748;7.102;2023-05-10T09:37:51;2.72;;;1.10;;
32445;SDS011;18899;50.748;7.102;2023-05-10T09:43:04;1.63;;;0.80;;
32445;SDS011;18899;50.748;7.102;2023-05-10T09:45:33;0.90;;;0.65;;
32445;SDS011;18899;50.748;7.102;2023-05-10T09:48:01;3.20;;;1.00;;
32445;SDS011;18899;50.748;7.102;2023-05-10T09:50:28;1.75;;;0.85;;
32445;SDS011;18899;50.748;7.102;2023-05-10T09:55:25;3.05;;;0.85;;
32445;SDS011;18899;50.748;7.102;2023-05-10T09:58:02;1.90;;;0.80;;
32445;SDS011;18899;50.748;7.102;2023-05-10T10:00:33;4.70;;;0.60;;
32445;SDS011;18899;50.748;7.102;2023-05-10T10:05:32;2.72;;;0.60;;
32445;SDS011;18899;50.748;7.102;2023-05-10T10:08:02;2.20;;;0.80;;
32445;SDS011;18899;50.748;7.102;2023-05-10T10:10:29;1.48;;;0.80;;
32445;SDS011;18899;50.748;7.102;2023-05-10T10:12:56;3.88;;;1.52;;
32445;SDS011;18899;50.748;7.102;2023-05-10T10:15:22;2.80;;;1.70;;
32445;SDS011;18899;50.748;7.102;2023-05-10T10:17:48;3.40;;;2.53;;
32445;SDS011;18899;50.748;7.102;2023-05-10T10:20:15;6.78;;;2.95;;
32445;SDS011;18899;50.748;7.102;2023-05-10T10:22:42;7.93;;;2.97;;
32445;SDS011;18899;50.748;7.102;2023-05-10T10:25:13;7.75;;;4.28;;
32445;SDS011;18899;50.748;7.102;2023-05-10T10:36:05;8.93;;;4.90;;
32445;SDS011;18899;50.748;7.102;2023-05-10T10:38:54;11.10;;;5.28;;
32445;SDS011;18899;50.748;7.102;2023-05-10T10:41:28;9.75;;;5.28;;
32445;SDS011;18899;50.748;7.102;2023-05-10T10:49:37;11.10;;;5.03;;
32445;SDS011;18899;50.748;7.102;2023-05-10T10:55:06;8.10;;;4.80;;
32445;SDS011;18899;50.748;7.102;2023-05-10T10:57:54;6.88;;;3.40;;
32445;SDS011;18899;50.748;7.102;2023-05-10T11:00:26;6.10;;;2.60;;
32445;SDS011;18899;50.748;7.102;2023-05-10T11:08:16;2.33;;;1.13;;
32445;SDS011;18899;50.748;7.102;2023-05-10T11:13:31;1.20;;;0.77;;
32445;SDS011;18899;50.748;7.102;2023-05-10T11:19:02;1.27;;;0.90;;
32445;SDS011;18899;50.748;7.102;2023-05-10T11:21:30;1.05;;;0.70;;
32445;SDS011;18899;50.748;7.102;2023-05-10T11:23:57;2.45;;;0.93;;
32445;SDS011;18899;50.748;7.102;2023-05-10T11:26:25;2.20;;;0.65;;
32445;SDS011;18899;50.748;7.102;2023-05-10T11:28:58;1.65;;;0.90;;
32445;SDS011;18899;50.748;7.102;2023-05-10T11:31:25;1.25;;;0.90;;
32445;SDS011;18899;50.748;7.102;2023-05-10T11:33:58;6.03;;;1.27;;
32445;SDS011;18899;50.748;7.102;2023-05-10T11:36:27;1.35;;;0.90;;
32445;SDS011;18899;50.748;7.102;2023-05-10T11:38:54;0.90;;;0.80;;
32445;SDS011;18899;50.748;7.102;2023-05-10T11:41:21;1.10;;;0.82;;
32445;SDS011;18899;50.748;7.102;2023-05-10T11:43:54;1.27;;;0.80;;
32445;SDS011;18899;50.748;7.102;2023-05-10T11:46:21;1.45;;;0.80;;
32445;SDS011;18899;50.748;7.102;2023-05-10T11:48:52;1.25;;;0.70;;
32445;SDS011;18899;50.748;7.102;2023-05-10T11:51:21;1.65;;;0.80;;
32445;SDS011;18899;50.748;7.102;2023-05-10T11:53:49;3.20;;;0.70;;
32445;SDS011;18899;50.748;7.102;2023-05-10T11:56:15;0.80;;;0.50;;
32445;SDS011;18899;50.748;7.102;2023-05-10T11:58:41;3.10;;;0.50;;
32445;SDS011;18899;50.748;7.102;2023-05-10T12:01:07;0.90;;;0.55;;
32445;SDS011;18899;50.748;7.102;2023-05-10T12:03:33;1.15;;;0.50;;
32445;SDS011;18899;50.748;7.102;2023-05-10T12:05:59;0.93;;;0.57;;
32445;SDS011;18899;50.748;7.102;2023-05-10T12:08:27;0.90;;;0.57;;
32445;SDS011;18899;50.748;7.102;2023-05-10T12:11:03;0.95;;;0.75;;
32445;SDS011;18899;50.748;7.102;2023-05-10T12:13:30;1.55;;;0.70;;
32445;SDS011;18899;50.748;7.102;2023-05-10T12:15:58;1.23;;;0.65;;
32445;SDS011;18899;50.748;7.102;2023-05-10T12:18:25;1.40;;;0.93;;
32445;SDS011;18899;50.748;7.102;2023-05-10T12:20:54;1.60;;;1.00;;
32445;SDS011;18899;50.748;7.102;2023-05-10T12:23:27;1.65;;;0.80;;
32445;SDS011;18899;50.748;7.102;2023-05-10T12:25:53;0.88;;;0.70;;
32445;SDS011;18899;50.748;7.102;2023-05-10T12:28:18;1.52;;;0.70;;
32445;SDS011;18899;50.748;7.102;2023-05-10T12:30:44;1.52;;;0.80;;
32445;SDS011;18899;50.748;7.102;2023-05-10T12:33:11;0.90;;;0.55;;
32445;SDS011;18899;50.748;7.102;2023-05-10T12:35:53;0.80;;;0.68;;
32445;SDS011;18899;50.748;7.102;2023-05-10T12:38:38;1.52;;;0.60;;
32445;SDS011;18899;50.748;7.102;2023-05-10T12:41:11;0.90;;;0.65;;
32445;SDS011;18899;50.748;7.102;2023-05-10T12:43:38;2.07;;;0.60;;
32445;SDS011;18899;50.748;7.102;2023-05-10T12:46:14;1.02;;;0.57;;
32445;SDS011;18899;50.748;7.102;2023-05-10T12:48:41;1.45;;;0.70;;
32445;SDS011;18899;50.748;7.102;2023-05-10T12:51:08;1.85;;;0.55;;
32445;SDS011;18899;50.748;7.102;2023-05-10T12:53:40;1.10;;;0.70;;
32445;SDS011;18899;50.748;7.102;2023-05-10T12:56:05;0.75;;;0.60;;
32445;SDS011;18899;50.748;7.102;2023-05-10T12:58:31;2.22;;;0.90;;
32445;SDS011;18899;50.748;7.102;2023-05-10T13:00:57;1.35;;;1.00;;
32445;SDS011;18899;50.748;7.102;2023-05-10T13:03:24;1.90;;;0.80;;
32445;SDS011;18899;50.748;7.102;2023-05-10T13:05:49;0.90;;;0.80;;
32445;SDS011;18899;50.748;7.102;2023-05-10T13:08:15;3.58;;;0.90;;
32445;SDS011;18899;50.748;7.102;2023-05-10T13:10:40;1.10;;;0.80;;
32445;SDS011;18899;50.748;7.102;2023-05-10T13:13:06;1.23;;;1.00;;
32445;SDS011;18899;50.748;7.102;2023-05-10T13:15:35;1.25;;;0.75;;
32445;SDS011;18899;50.748;7.102;2023-05-10T13:18:00;3.65;;;0.80;;
32445;SDS011;18899;50.748;7.102;2023-05-10T13:20:26;1.17;;;0.77;;
32445;SDS011;18899;50.748;7.102;2023-05-10T13:22:52;2.15;;;0.70;;
32445;SDS011;18899;50.748;7.102;2023-05-10T13:25:18;1.85;;;0.68;;
32445;SDS011;18899;50.748;7.102;2023-05-10T13:27:43;1.02;;;0.60;;
32445;SDS011;18899;50.748;7.102;2023-05-10T13:30:09;1.13;;;0.60;;
32445;SDS011;18899;50.748;7.102;2023-05-10T13:32:36;1.25;;;0.70;;
32445;SDS011;18899;50.748;7.102;2023-05-10T13:35:02;1.55;;;0.70;;
32445;SDS011;18899;50.748;7.102;2023-05-10T13:37:28;1.15;;;0.50;;
32445;SDS011;18899;50.748;7.102;2023-05-10T13:39:54;0.50;;;0.30;;
32445;SDS011;18899;50.748;7.102;2023-05-10T13:42:21;0.90;;;0.50;;
32445;SDS011;18899;50.748;7.102;2023-05-10T13:44:47;1.00;;;0.55;;
32445;SDS011;18899;50.748;7.102;2023-05-10T13:47:13;2.33;;;0.90;;
32445;SDS011;18899;50.748;7.102;2023-05-10T13:49:38;8.07;;;1.02;;
32445;SDS011;18899;50.748;7.102;2023-05-10T13:52:04;0.85;;;0.50;;
32445;SDS011;18899;50.748;7.102;2023-05-10T13:54:32;1.20;;;0.65;;
32445;SDS011;18899;50.748;7.102;2023-05-10T13:56:58;0.90;;;0.40;;
32445;SDS011;18899;50.748;7.102;2023-05-10T13:59:24;0.63;;;0.50;;
32445;SDS011;18899;50.748;7.102;2023-05-10T14:01:50;1.63;;;0.80;;
32445;SDS011;18899;50.748;7.102;2023-05-10T14:04:16;2.15;;;0.63;;
32445;SDS011;18899;50.748;7.102;2023-05-10T14:06:41;1.38;;;0.65;;
32445;SDS011;18899;50.748;7.102;2023-05-10T14:09:07;2.10;;;0.90;;
32445;SDS011;18899;50.748;7.102;2023-05-10T14:11:32;1.92;;;0.68;;
32445;SDS011;18899;50.748;7.102;2023-05-10T14:13:58;1.80;;;1.00;;
32445;SDS011;18899;50.748;7.102;2023-05-10T14:16:23;1.83;;;0.80;;
32445;SDS011;18899;50.748;7.102;2023-05-10T14:18:49;0.88;;;0.60;;
32445;SDS011;18899;50.748;7.102;2023-05-10T14:21:15;2.42;;;0.65;;
32445;SDS011;18899;50.748;7.102;2023-05-10T14:23:40;1.88;;;0.80;;
32445;SDS011;18899;50.748;7.102;2023-05-10T14:26:06;1.00;;;0.70;;
32445;SDS011;18899;50.748;7.102;2023-05-10T14:28:31;2.30;;;0.98;;
32445;SDS011;18899;50.748;7.102;2023-05-10T14:30:57;1.15;;;0.80;;
32445;SDS011;18899;50.748;7.102;2023-05-10T14:33:23;2.15;;;0.88;;
32445;SDS011;18899;50.748;7.102;2023-05-10T14:35:49;1.10;;;0.57;;
32445;SDS011;18899;50.748;7.102;2023-05-10T14:38:15;1.92;;;0.82;;
32445;SDS011;18899;50.748;7.102;2023-05-10T14:40:40;1.10;;;0.63;;
32445;SDS011;18899;50.748;7.102;2023-05-10T14:43:07;2.50;;;1.10;;
32445;SDS011;18899;50.748;7.102;2023-05-10T14:45:32;1.48;;;1.13;;
32445;SDS011;18899;50.748;7.102;2023-05-10T14:47:58;1.88;;;1.25;;
32445;SDS011;18899;50.748;7.102;2023-05-10T14:50:24;1.98;;;1.10;;
32445;SDS011;18899;50.748;7.102;2023-05-10T14:52:50;4.22;;;1.50;;
32445;SDS011;18899;50.748;7.102;2023-05-10T14:55:16;2.17;;;1.50;;
32445;SDS011;18899;50.748;7.102;2023-05-10T14:57:41;2.40;;;1.48;;
32445;SDS011;18899;50.748;7.102;2023-05-10T15:00:09;4.18;;;1.30;;
32445;SDS011;18899;50.748;7.102;2023-05-10T15:02:35;2.45;;;1.42;;
32445;SDS011;18899;50.748;7.102;2023-05-10T15:05:00;4.45;;;1.60;;
32445;SDS011;18899;50.748;7.102;2023-05-10T15:07:26;2.50;;;1.23;;
32445;SDS011;18899;50.748;7.102;2023-05-10T15:09:51;4.38;;;1.60;;
32445;SDS011;18899;50.748;7.102;2023-05-10T15:12:17;1.63;;;1.13;;
32445;SDS011;18899;50.748;7.102;2023-05-10T15:14:43;7.40;;;1.50;;
32445;SDS011;18899;50.748;7.102;2023-05-10T15:17:09;3.80;;;1.40;;
32445;SDS011;18899;50.748;7.102;2023-05-10T15:19:35;2.70;;;1.50;;
32445;SDS011;18899;50.748;7.102;2023-05-10T15:22:01;1.80;;;1.08;;
32445;SDS011;18899;50.748;7.102;2023-05-10T15:24:27;3.83;;;1.20;;
32445;SDS011;18899;50.748;7.102;2023-05-10T15:26:52;3.85;;;1.30;;
32445;SDS011;18899;50.748;7.102;2023-05-10T15:29:18;2.22;;;1.40;;
32445;SDS011;18899;50.748;7.102;2023-05-10T15:31:47;3.05;;;1.20;;
32445;SDS011;18899;50.748;7.102;2023-05-10T15:34:13;4.65;;;1.40;;
32445;SDS011;18899;50.748;7.102;2023-05-10T15:36:39;2.47;;;1.48;;
32445;SDS011;18899;50.748;7.102;2023-05-10T15:39:05;3.05;;;1.60;;
32445;SDS011;18899;50.748;7.102;2023-05-10T15:41:30;2.85;;;1.75;;